Pemberton, NJ

4:02 PM EST on January 26, 2015 (GMT -0500)
McGuire Air Force Base | Change Station
CLOSE
Current Station
Airport
Location: McGuire AFB,
Elevation: 135 ft
Nearby Weather Stations
Active Advisory: Winter Storm Warning Active Notice: Public Information Statement

Elev 135 ft 40.02 °N, 74.59 °W | Updated 4 minutes ago

Overcast
Overcast
26 °F
Feels Like 13 °F
N
16
Wind Variable Wind from NNE

Today
High -- | Low -- °F
--% Chance of Precip.
Yesterday
High -- | Low -- °F
Precip. -- in
7:12 AM 5:10 PM
Waxing Crescent, 46% visible
Pressure 29.78 in
Visibility 5.0 miles
Clouds Few 1100 ft
Overcast 2200 ft
Windchill 13 °F
Dew Point 23 °F
Humidity 89%
Rainfall 0.00 in
Snow Depth Not available.
UV 0 out of 12
Pollen .10 out of 12
Air Quality Not available.
Flu Activity Not available.
METAR KWRI 262058Z 03014KT 5SM BLSN FEW011 OVC022 M03/M05 A2976 RMK AO2A SNE2022 SLP082 P0000 60000 T10351050 56014 $

More Conditions Fewer Conditions

Pressure 29.78 in
Visibility 5.0 miles
Clouds Few 1100 ft
Overcast 2200 ft
Windchill 13 °F
Dew Point 23 °F
Humidity 89%
Rainfall 0.00 in
Snow Depth Not available.
UV 0 out of 12
Pollen .10 out of 12
Air Quality Not available.
Flu Activity Not available.
METAR KWRI 262058Z 03014KT 5SM BLSN FEW011 OVC022 M03/M05 A2976 RMK AO2A SNE2022 SLP082 P0000 60000 T10351050 56014 $

More Conditions Fewer Conditions

10-Day Weather Forecast

Almanac

Astronomy

Jan. 26, 2015 Rise Set
Actual Time
Civil Twilight
Nautical Twilight
Astronomical Twilight
Moon
Length of Visible Light
Length of Day
Tomorrow will be .
, % of the Moon is Illuminated

Today's Extremes

State Highs State Lows

Community

WunderPhotos

Upload Photos

1,790,361 photos uploaded!

WunderBlogs® & News

Nearby

Air Quality

  Air Quality AQ Index Pollutant
Not available.

Snow Depth

Station Depth Elevation

Earthquake Activity

City Distance Mag. Time & Date
Minimum magnitude displayed is 2.5.

Coastal Water Temperatures

Place Temperature

Nearby Weather Stations